createdAt,value
2019-02-25T00:01:43.328Z,19.17
2019-02-25T00:04:24.407Z,19.10
2019-02-25T00:07:05.053Z,18.70
2019-02-25T00:09:46.134Z,18.00
2019-02-25T00:12:26.759Z,19.30
2019-02-25T00:15:07.638Z,19.27
2019-02-25T00:17:48.177Z,17.30
2019-02-25T00:20:29.061Z,18.90
2019-02-25T00:23:09.907Z,19.47
2019-02-25T00:25:50.827Z,19.37
2019-02-25T00:28:31.517Z,18.43
2019-02-25T00:31:11.951Z,18.67
2019-02-25T00:33:52.792Z,18.50
2019-02-25T00:36:33.401Z,18.70
2019-02-25T00:39:13.965Z,18.37
2019-02-25T00:41:54.784Z,18.30
2019-02-25T00:44:35.364Z,17.50
2019-02-25T00:47:15.747Z,19.20
2019-02-25T00:49:56.747Z,17.50
2019-02-25T00:52:37.450Z,18.23
2019-02-25T00:55:18.110Z,18.47
2019-02-25T01:00:41.137Z,17.90
2019-02-25T01:03:21.959Z,18.13
2019-02-25T01:06:02.757Z,17.47
2019-02-25T01:08:43.728Z,17.90
2019-02-25T01:11:25.105Z,17.40
2019-02-25T01:14:05.509Z,17.20
2019-02-25T01:16:46.328Z,17.00
2019-02-25T01:19:26.900Z,18.30
2019-02-25T01:22:07.584Z,15.80
2019-02-25T01:24:48.183Z,17.47
2019-02-25T01:27:28.845Z,17.33
2019-02-25T01:30:09.709Z,17.67
2019-02-25T01:32:50.352Z,18.47
2019-02-25T01:35:31.201Z,17.20
2019-02-25T01:38:12.386Z,18.17
2019-02-25T01:40:53.665Z,17.60
2019-02-25T01:43:34.287Z,17.13
2019-02-25T01:46:14.946Z,17.20
2019-02-25T01:48:55.924Z,17.50
2019-02-25T01:51:36.897Z,17.00
2019-02-25T01:54:17.918Z,16.60
2019-02-25T01:56:56.999Z,18.77
2019-02-25T01:59:45.171Z,16.30
2019-02-25T02:02:33.101Z,16.27
2019-02-25T02:05:21.041Z,16.43
2019-02-25T02:08:09.509Z,17.67
2019-02-25T02:10:57.720Z,16.80
2019-02-25T02:13:45.626Z,17.73
2019-02-25T02:16:33.841Z,16.30
2019-02-25T02:19:22.087Z,15.80
2019-02-25T02:22:03.084Z,17.30
2019-02-25T02:24:44.196Z,17.00
2019-02-25T02:27:25.496Z,15.70
2019-02-25T02:30:06.294Z,16.90
2019-02-25T02:32:47.243Z,16.10
2019-02-25T02:35:28.226Z,16.83
2019-02-25T02:38:09.015Z,15.73
2019-02-25T02:40:49.703Z,15.87
2019-02-25T02:43:30.533Z,16.60
2019-02-25T02:46:11.389Z,16.00
2019-02-25T02:48:52.818Z,16.30
2019-02-25T02:51:33.315Z,15.10
2019-02-25T02:54:15.721Z,16.40
2019-02-25T02:56:56.219Z,16.77
2019-02-25T02:59:37.310Z,16.03
2019-02-25T03:02:17.657Z,16.53
2019-02-25T03:04:58.125Z,15.03
2019-02-25T03:07:38.972Z,16.83
2019-02-25T03:10:19.485Z,15.27
2019-02-25T03:13:00.195Z,15.53
2019-02-25T03:15:40.664Z,16.83
2019-02-25T03:18:21.048Z,17.43
2019-02-25T03:21:02.423Z,15.47
2019-02-25T03:23:42.973Z,16.23
2019-02-25T03:26:23.675Z,17.10
2019-02-25T03:29:04.560Z,15.90
2019-02-25T03:31:45.153Z,15.70
2019-02-25T03:34:25.985Z,15.90
2019-02-25T03:37:06.403Z,15.80
2019-02-25T03:39:47.275Z,15.80
2019-02-25T03:42:27.764Z,16.17
2019-02-25T03:45:08.516Z,17.20
2019-02-25T03:47:49.259Z,16.10
2019-02-25T03:50:30.057Z,15.07
2019-02-25T03:53:11.343Z,15.80
2019-02-25T03:55:52.195Z,15.60
2019-02-25T03:58:33.127Z,15.87
2019-02-25T04:01:13.711Z,16.90
2019-02-25T04:03:54.458Z,15.20
2019-02-25T04:06:35.270Z,16.10
2019-02-25T04:09:15.928Z,14.80
2019-02-25T04:11:56.703Z,16.43
2019-02-25T04:14:37.759Z,15.00
2019-02-25T04:17:18.239Z,16.00
2019-02-25T04:19:59.341Z,15.60
2019-02-25T04:25:09.965Z,15.33
2019-02-25T04:27:57.867Z,14.83
2019-02-25T04:30:45.883Z,14.67
2019-02-25T04:33:34.100Z,14.60
2019-02-25T04:36:22.284Z,14.83
2019-02-25T04:39:10.687Z,15.40
2019-02-25T04:41:58.941Z,14.77
2019-02-25T04:44:47.132Z,15.13
2019-02-25T04:47:35.047Z,14.53
2019-02-25T04:50:22.937Z,14.53
2019-02-25T04:53:10.908Z,13.70
2019-02-25T04:55:58.812Z,15.63
2019-02-25T04:58:46.747Z,14.00
2019-02-25T05:01:34.647Z,15.17
2019-02-25T05:04:22.997Z,13.67
2019-02-25T05:07:10.950Z,13.83
2019-02-25T05:09:59.135Z,14.30
2019-02-25T05:13:06.360Z,14.00
2019-02-25T05:15:54.437Z,14.33
2019-02-25T05:18:42.399Z,14.37
2019-02-25T05:21:30.621Z,14.93
2019-02-25T05:24:11.451Z,14.03
2019-02-25T05:26:52.415Z,13.57
2019-02-25T05:29:33.419Z,14.10
2019-02-25T05:32:14.398Z,13.47
2019-02-25T05:34:53.536Z,14.40
2019-02-25T05:37:41.512Z,13.00
2019-02-25T05:40:29.422Z,12.60
2019-02-25T05:43:17.664Z,14.13
2019-02-25T05:46:06.059Z,14.10
2019-02-25T05:48:54.036Z,13.43
2019-02-25T05:51:41.975Z,13.10
2019-02-25T05:54:29.927Z,12.90
2019-02-25T05:57:17.821Z,13.40
2019-02-25T06:00:06.208Z,12.63
2019-02-25T06:02:54.373Z,13.57
2019-02-25T06:05:42.305Z,13.90
2019-02-25T06:08:30.195Z,13.37
2019-02-25T06:11:18.152Z,12.77
2019-02-25T06:14:06.332Z,13.30
2019-02-25T06:16:54.314Z,12.70
2019-02-25T06:19:42.220Z,13.10
2019-02-25T06:22:22.631Z,12.10
2019-02-25T06:25:03.394Z,13.77
2019-02-25T06:27:45.068Z,13.03
2019-02-25T06:30:26.212Z,13.30
2019-02-25T06:33:07.136Z,12.80
2019-02-25T06:38:30.501Z,12.90
2019-02-25T06:41:11.080Z,13.17
2019-02-25T06:43:52.340Z,14.03
2019-02-25T06:46:33.567Z,12.50
2019-02-25T06:49:14.602Z,13.60
2019-02-25T06:51:55.668Z,12.23
2019-02-25T06:54:37.275Z,13.70
2019-02-25T06:57:18.091Z,12.60
2019-02-25T06:59:58.784Z,12.50
2019-02-25T07:05:41.573Z,12.47
2019-02-25T07:08:41.084Z,12.87
2019-02-25T07:11:30.499Z,12.80
2019-02-25T07:14:30.716Z,12.47
2019-02-25T07:17:26.153Z,12.33
2019-02-25T07:20:19.800Z,12.50
2019-02-25T07:23:19.269Z,12.70
2019-02-25T07:26:19.578Z,11.67
2019-02-25T07:29:06.741Z,12.33
2019-02-25T07:32:01.355Z,11.90
2019-02-25T07:35:01.078Z,12.27
2019-02-25T07:38:01.340Z,12.13
2019-02-25T07:40:53.842Z,12.13
2019-02-25T07:43:40.009Z,11.93
2019-02-25T07:46:40.181Z,12.13
2019-02-25T07:49:30.048Z,11.63
2019-02-25T07:52:17.496Z,11.17
2019-02-25T07:55:04.403Z,11.57
2019-02-25T07:57:45.553Z,12.13
2019-02-25T08:00:39.679Z,12.23
2019-02-25T08:03:25.149Z,12.00
2019-02-25T08:06:32.141Z,11.40
2019-02-25T08:09:27.329Z,11.47
2019-02-25T08:12:21.212Z,12.03
2019-02-25T08:15:28.222Z,11.23
2019-02-25T08:18:35.240Z,11.47
2019-02-25T08:21:42.476Z,12.13
2019-02-25T08:27:24.628Z,12.03
2019-02-25T08:33:21.924Z,12.13
2019-02-25T08:36:22.019Z,11.70
2019-02-25T08:39:03.051Z,12.00
2019-02-25T08:41:54.277Z,11.40
2019-02-25T08:44:37.742Z,11.63
2019-02-25T08:47:44.754Z,11.77
2019-02-25T08:50:32.665Z,11.87
2019-02-25T08:53:20.590Z,11.60
2019-02-25T08:56:09.363Z,10.80
2019-02-25T08:58:58.220Z,11.10
2019-02-25T09:01:46.513Z,11.77
2019-02-25T09:04:49.148Z,10.23
2019-02-25T09:07:25.486Z,10.70
2019-02-25T09:10:13.664Z,11.13
2019-02-25T09:13:03.010Z,10.70
2019-02-25T09:15:50.920Z,9.70
2019-02-25T09:18:38.876Z,10.47
2019-02-25T09:21:31.822Z,10.10
2019-02-25T09:24:09.556Z,9.93
2019-02-25T09:26:50.072Z,9.70
2019-02-25T09:29:30.895Z,9.83
2019-02-25T09:32:11.628Z,9.67
2019-02-25T09:34:52.437Z,9.30
2019-02-25T09:37:32.796Z,8.70
2019-02-25T09:40:13.708Z,8.53
2019-02-25T09:42:54.581Z,9.17
2019-02-25T09:45:35.446Z,8.40
2019-02-25T09:48:16.476Z,9.10
2019-02-25T09:50:45.183Z,8.90
2019-02-25T09:53:14.006Z,8.17
2019-02-25T09:56:01.976Z,7.90
2019-02-25T09:58:30.714Z,9.07
2019-02-25T10:00:59.417Z,8.47
2019-02-25T10:03:47.351Z,7.70
2019-02-25T10:06:35.244Z,7.67
2019-02-25T10:09:29.661Z,8.60
2019-02-25T10:11:53.832Z,8.30
2019-02-25T10:14:41.784Z,7.90
2019-02-25T10:17:29.697Z,7.63
2019-02-25T10:20:17.639Z,7.80
2019-02-25T10:23:05.660Z,7.30
2019-02-25T10:25:46.088Z,7.40
2019-02-25T10:28:26.911Z,6.40
2019-02-25T10:31:07.980Z,6.93
2019-02-25T10:33:48.699Z,7.70
2019-02-25T10:36:29.653Z,7.03
2019-02-25T10:38:58.828Z,7.53
2019-02-25T10:41:46.740Z,7.50
2019-02-25T10:44:36.154Z,7.00
2019-02-25T10:47:24.319Z,6.77
2019-02-25T10:49:53.135Z,7.53
2019-02-25T10:52:42.850Z,7.70
2019-02-25T10:55:32.107Z,7.00
2019-02-25T10:58:20.032Z,7.10
2019-02-25T11:01:13.085Z,6.33
2019-02-25T11:03:57.581Z,7.20
2019-02-25T11:06:45.476Z,6.43
2019-02-25T11:09:52.464Z,6.43
2019-02-25T11:12:40.581Z,6.57
2019-02-25T11:15:31.672Z,6.27
2019-02-25T11:18:20.363Z,6.20
2019-02-25T11:20:49.927Z,6.50
2019-02-25T11:23:19.428Z,6.20
2019-02-25T11:25:48.564Z,6.60
2019-02-25T11:28:25.391Z,6.30
2019-02-25T11:31:06.890Z,6.47
2019-02-25T11:33:56.490Z,5.87
2019-02-25T11:38:54.071Z,6.23
2019-02-25T11:41:22.723Z,5.50
2019-02-25T11:44:10.697Z,5.43
2019-02-25T11:46:58.657Z,5.63
2019-02-25T11:49:46.815Z,4.43
2019-02-25T11:52:35.188Z,4.13
2019-02-25T11:55:03.794Z,3.93
2019-02-25T11:57:51.977Z,3.70
2019-02-25T12:00:40.160Z,3.50
2019-02-25T12:03:28.123Z,3.80
2019-02-25T12:06:16.035Z,3.20
2019-02-25T12:08:44.954Z,3.07
2019-02-25T12:11:13.546Z,3.00
2019-02-25T12:13:42.120Z,3.00
2019-02-25T12:16:30.036Z,2.63
2019-02-25T12:19:18.313Z,2.60
2019-02-25T12:22:06.238Z,2.80
2019-02-25T12:24:34.831Z,2.33
2019-02-25T12:27:03.419Z,2.17
2019-02-25T12:29:51.388Z,2.45
2019-02-25T12:32:39.292Z,2.27
2019-02-25T12:35:27.206Z,2.20
2019-02-25T12:38:15.132Z,2.27
2019-02-25T12:41:03.076Z,2.42
2019-02-25T12:43:51.248Z,2.25
2019-02-25T12:46:39.403Z,2.02
2019-02-25T12:49:08.531Z,2.27
2019-02-25T12:51:56.456Z,2.10
2019-02-25T12:54:44.590Z,2.10
2019-02-25T12:57:32.549Z,2.30
2019-02-25T13:00:01.148Z,1.90
2019-02-25T13:02:49.307Z,1.98
2019-02-25T13:05:17.910Z,1.80
2019-02-25T13:08:05.869Z,2.12
2019-02-25T13:10:53.803Z,2.00
2019-02-25T13:13:22.679Z,1.87
2019-02-25T13:16:10.592Z,2.10
2019-02-25T13:18:39.212Z,1.95
2019-02-25T13:21:27.115Z,1.90
2019-02-25T13:23:56.976Z,2.02
2019-02-25T13:26:37.481Z,1.92
2019-02-25T13:29:26.404Z,1.95
2019-02-25T13:32:14.855Z,2.22
2019-02-25T13:35:04.259Z,2.37
2019-02-25T13:37:32.896Z,2.08
2019-02-25T13:40:01.553Z,2.45
2019-02-25T13:42:30.242Z,2.10
2019-02-25T13:44:59.027Z,2.30
2019-02-25T13:47:28.224Z,2.15
2019-02-25T13:49:56.842Z,2.00
2019-02-25T13:52:48.578Z,2.25
2019-02-25T13:55:34.650Z,1.85
2019-02-25T13:58:22.824Z,2.08
2019-02-25T14:01:10.899Z,2.00
2019-02-25T14:03:59.129Z,2.08
2019-02-25T14:06:28.510Z,1.77
2019-02-25T14:11:27.249Z,2.20
2019-02-25T14:14:15.263Z,2.17
2019-02-25T14:16:44.159Z,2.90
2019-02-25T14:19:32.099Z,2.87
2019-02-25T14:22:00.747Z,3.33
2019-02-25T14:24:49.250Z,3.87
2019-02-25T14:27:30.592Z,3.80
2019-02-25T14:30:11.243Z,3.80
2019-02-25T14:38:52.385Z,4.20
2019-02-25T14:43:51.581Z,4.63
2019-02-25T14:48:50.057Z,4.63
2019-02-25T14:51:38.308Z,4.27
2019-02-25T14:54:26.754Z,4.23
2019-02-25T14:59:50.733Z,4.50
2019-02-25T15:04:50.361Z,3.90
2019-02-25T15:07:19.596Z,3.50
2019-02-25T15:09:48.209Z,3.40
2019-02-25T15:12:16.875Z,3.47
2019-02-25T15:14:45.507Z,3.57
2019-02-25T15:17:14.895Z,3.60
2019-02-25T15:20:02.942Z,3.60
2019-02-25T15:22:32.059Z,3.90
2019-02-25T15:27:43.958Z,4.20
2019-02-25T15:30:27.445Z,4.00
2019-02-25T15:33:08.067Z,4.47
2019-02-25T15:38:24.507Z,4.50
2019-02-25T15:44:02.342Z,5.00
2019-02-25T15:46:30.631Z,4.33
2019-02-25T15:49:19.673Z,4.60
2019-02-25T15:54:18.683Z,4.53
2019-02-25T15:57:06.626Z,5.03
2019-02-25T15:59:54.568Z,4.47
2019-02-25T16:02:42.825Z,5.13
2019-02-25T16:05:11.716Z,5.13
2019-02-25T16:08:00.708Z,4.90
2019-02-25T16:12:59.924Z,4.60
2019-02-25T16:18:04.607Z,4.50
2019-02-25T16:20:52.507Z,5.17
2019-02-25T16:23:21.171Z,4.57
2019-02-25T16:25:50.963Z,5.07
2019-02-25T16:28:33.996Z,5.20
2019-02-25T16:31:14.825Z,4.40
2019-02-25T16:33:55.902Z,4.90
2019-02-25T16:36:26.238Z,4.80
2019-02-25T16:39:15.607Z,4.60
2019-02-25T16:42:03.613Z,4.67
2019-02-25T16:44:51.536Z,4.90
2019-02-25T16:47:31.844Z,4.63
2019-02-25T16:50:12.552Z,4.63
2019-02-25T16:55:11.726Z,4.93
2019-02-25T16:58:01.792Z,4.43
2019-02-25T17:00:50.015Z,4.67
2019-02-25T17:03:39.772Z,4.80
2019-02-25T17:08:37.795Z,4.67
2019-02-25T17:11:06.477Z,5.40
2019-02-25T17:13:36.986Z,5.20
2019-02-25T17:18:55.251Z,5.00
2019-02-25T17:21:43.676Z,4.50
2019-02-25T17:24:34.712Z,4.90
2019-02-25T17:29:44.136Z,5.20
2019-02-25T17:32:25.464Z,5.70
2019-02-25T17:35:07.417Z,5.77
2019-02-25T17:37:38.087Z,5.00
2019-02-25T17:42:56.272Z,5.27
2019-02-25T17:47:58.386Z,5.67
2019-02-25T17:53:19.089Z,5.40
2019-02-25T17:55:49.022Z,5.77
2019-02-25T18:06:23.308Z,5.60
2019-02-25T18:09:10.013Z,5.70
2019-02-25T18:11:59.971Z,6.03
2019-02-25T18:14:47.859Z,5.60
2019-02-25T18:17:17.545Z,5.60
2019-02-25T18:22:35.735Z,5.83
2019-02-25T18:25:23.742Z,6.00
2019-02-25T18:28:13.036Z,5.87
2019-02-25T18:30:54.407Z,5.50
2019-02-25T18:36:16.551Z,6.53
2019-02-25T18:38:46.379Z,6.10
2019-02-25T18:44:04.902Z,5.90
2019-02-25T18:49:22.292Z,5.77
2019-02-25T18:52:10.219Z,17.40
2019-02-25T18:55:01.896Z,20.37
2019-02-25T19:08:47.308Z,24.30
2019-02-25T19:14:04.572Z,26.00
2019-02-25T19:16:52.539Z,28.50
2019-02-25T19:22:35.590Z,29.13
2019-02-25T19:28:21.090Z,30.90
2019-02-25T19:31:03.583Z,30.37
2019-02-25T19:33:44.663Z,29.80
2019-02-25T19:36:27.740Z,31.20
2019-02-25T19:39:10.007Z,35.60
2019-02-25T19:41:51.016Z,34.70
2019-02-25T19:44:39.199Z,33.57
2019-02-25T19:47:27.231Z,31.70
2019-02-25T19:50:15.350Z,35.60
2019-02-25T19:53:05.252Z,38.30
2019-02-25T19:58:32.949Z,35.97
2019-02-25T20:03:47.731Z,39.57
2019-02-25T20:06:36.456Z,37.10
2019-02-25T20:09:24.532Z,37.57
2019-02-25T20:12:12.828Z,36.60
2019-02-25T20:15:00.792Z,34.70
2019-02-25T20:17:50.640Z,34.43
2019-02-25T20:23:17.877Z,32.77
2019-02-25T20:26:06.074Z,31.30
2019-02-25T20:28:54.033Z,32.60
2019-02-25T20:31:35.187Z,35.20
2019-02-25T20:34:18.514Z,33.10
2019-02-25T20:36:59.907Z,34.97
2019-02-25T20:39:42.984Z,33.63
2019-02-25T20:42:26.198Z,33.23
2019-02-25T20:45:08.689Z,35.30
2019-02-25T20:47:50.113Z,34.43
2019-02-25T20:50:32.463Z,34.17
2019-02-25T20:53:12.826Z,34.13
2019-02-25T20:55:54.637Z,34.83
2019-02-25T21:01:20.418Z,34.30
2019-02-25T21:04:01.325Z,36.60
2019-02-25T21:06:43.940Z,34.70
2019-02-25T21:09:24.438Z,34.53
2019-02-25T21:12:04.969Z,34.77
2019-02-25T21:14:45.680Z,38.53
2019-02-25T21:17:26.312Z,36.83
2019-02-25T21:20:07.287Z,38.03
2019-02-25T21:22:48.172Z,39.00
2019-02-25T21:28:11.476Z,36.43
2019-02-25T21:30:52.828Z,36.73
2019-02-25T21:33:33.737Z,34.30
2019-02-25T21:36:02.511Z,33.83
2019-02-25T21:41:45.845Z,33.67
2019-02-25T21:47:09.316Z,33.47
2019-02-25T21:49:59.103Z,32.33
2019-02-25T21:52:47.956Z,33.33
2019-02-25T21:55:36.027Z,33.40
2019-02-25T22:01:17.338Z,34.30
2019-02-25T22:04:09.183Z,32.20
2019-02-25T22:06:55.783Z,32.60
2019-02-25T22:12:19.948Z,33.60
2019-02-25T22:15:08.625Z,33.50
2019-02-25T22:18:16.014Z,34.00
2019-02-25T22:21:07.138Z,34.10
2019-02-25T22:26:33.354Z,35.10
2019-02-25T22:31:50.295Z,35.17
2019-02-25T22:34:30.942Z,33.90
2019-02-25T22:37:14.507Z,32.63
2019-02-25T22:39:54.947Z,33.40
2019-02-25T22:42:36.227Z,34.57
2019-02-25T22:45:18.782Z,33.43
2019-02-25T22:47:59.940Z,33.47
2019-02-25T22:50:40.692Z,33.33
2019-02-25T22:53:21.158Z,34.80
2019-02-25T22:56:02.350Z,33.53
2019-02-25T22:58:43.221Z,33.67
2019-02-25T23:01:24.060Z,32.57
2019-02-25T23:04:05.307Z,32.37
2019-02-25T23:06:46.944Z,32.07
2019-02-25T23:09:28.743Z,31.03
2019-02-25T23:12:09.644Z,31.80
2019-02-25T23:14:50.400Z,32.37
2019-02-25T23:17:33.080Z,34.70
2019-02-25T23:20:13.590Z,33.20
2019-02-25T23:22:55.162Z,33.70
2019-02-25T23:30:55.426Z,32.37
2019-02-25T23:33:40.202Z,32.33
2019-02-25T23:36:21.670Z,31.20
2019-02-25T23:38:50.672Z,32.13
2019-02-25T23:44:08.974Z,30.30
2019-02-25T23:49:27.684Z,32.23
2019-02-25T23:52:16.247Z,30.80
2019-02-25T23:55:04.874Z,30.80
2019-02-25T23:57:52.784Z,30.60
